createdAt,value
2024-04-11T00:01:56.815Z,6.50
2024-04-11T00:07:28.591Z,6.60
2024-04-11T00:10:14.137Z,6.70
2024-04-11T00:12:59.385Z,6.60
2024-04-11T00:15:42.294Z,6.60
2024-04-11T00:18:29.537Z,6.60
2024-04-11T00:21:12.308Z,6.60
2024-04-11T00:23:57.538Z,6.50
2024-04-11T00:26:43.204Z,6.50
2024-04-11T00:34:57.280Z,6.40
2024-04-11T00:37:39.826Z,6.40
2024-04-11T00:43:11.825Z,6.30
2024-04-11T00:45:58.809Z,6.30
2024-04-11T00:51:27.466Z,6.30
2024-04-11T00:54:10.495Z,6.30
2024-04-11T00:56:59.277Z,6.20
2024-04-11T00:59:45.825Z,6.20
2024-04-11T01:02:31.313Z,6.20
2024-04-11T01:05:13.940Z,6.20
2024-04-11T01:07:59.904Z,6.20
2024-04-11T01:10:42.448Z,6.10
2024-04-11T01:16:13.803Z,6.00
2024-04-11T01:18:59.087Z,6.00
2024-04-11T01:21:42.837Z,6.00
2024-04-11T01:24:30.752Z,6.00
2024-04-11T01:27:15.843Z,6.00
2024-04-11T01:30:04.341Z,5.90
2024-04-11T01:32:47.296Z,5.80
2024-04-11T01:35:32.943Z,5.90
2024-04-11T01:38:15.467Z,5.90
2024-04-11T01:41:03.664Z,5.90
2024-04-11T01:49:16.494Z,5.90
2024-04-11T01:52:11.400Z,5.80
2024-04-11T01:54:54.072Z,5.90
2024-04-11T01:57:42.027Z,5.80
2024-04-11T02:00:27.460Z,5.80
2024-04-11T02:08:44.307Z,5.70
2024-04-11T02:14:15.231Z,5.70
2024-04-11T02:19:46.488Z,5.70
2024-04-11T02:22:29.466Z,5.70
2024-04-11T02:25:15.243Z,5.70
2024-04-11T02:27:57.859Z,5.70
2024-04-11T02:30:47.296Z,5.80
2024-04-11T02:39:09.150Z,5.70
2024-04-11T02:41:53.284Z,5.70
2024-04-11T02:44:41.237Z,5.70
2024-04-11T02:47:26.597Z,5.80
2024-04-11T02:50:16.801Z,5.70
2024-04-11T02:55:45.524Z,5.80
2024-04-11T02:58:28.974Z,5.80
2024-04-11T03:01:15.682Z,5.80
2024-04-11T03:04:04.128Z,5.80
2024-04-11T03:06:51.270Z,5.80
2024-04-11T03:09:33.799Z,5.80
2024-04-11T03:12:19.104Z,5.80
2024-04-11T03:15:05.331Z,5.80
2024-04-11T03:17:51.768Z,5.90
2024-04-11T03:20:37.154Z,5.90
2024-04-11T03:23:22.380Z,5.90
2024-04-11T03:26:05.454Z,5.90
2024-04-11T03:28:50.836Z,5.90
2024-04-11T03:37:06.308Z,5.90
2024-04-11T03:39:51.535Z,5.80
2024-04-11T03:42:37.821Z,5.90
2024-04-11T03:45:28.229Z,5.90
2024-04-11T03:48:13.735Z,5.90
2024-04-11T03:51:00.249Z,5.80
2024-04-11T03:53:46.380Z,5.80
2024-04-11T03:56:32.012Z,5.80
2024-04-11T03:59:15.293Z,5.80
2024-04-11T04:04:44.297Z,5.90
2024-04-11T04:07:30.389Z,5.80
2024-04-11T04:10:15.826Z,5.90
2024-04-11T04:13:02.475Z,5.90
2024-04-11T04:15:47.684Z,5.90
2024-04-11T04:18:30.481Z,6.00
2024-04-11T04:24:01.377Z,6.10
2024-04-11T04:26:49.310Z,6.20
2024-04-11T04:29:32.536Z,6.20
2024-04-11T04:35:01.448Z,6.50
2024-04-11T04:40:30.684Z,6.70
2024-04-11T04:43:18.542Z,6.90
2024-04-11T04:46:02.000Z,7.10
2024-04-11T04:51:32.948Z,7.20
2024-04-11T04:54:18.301Z,7.20
2024-04-11T04:57:01.003Z,7.30
2024-04-11T04:59:48.919Z,7.40
2024-04-11T05:02:33.734Z,7.40
2024-04-11T05:05:20.157Z,7.50
2024-04-11T05:08:04.240Z,7.60
2024-04-11T05:10:57.848Z,7.70
2024-04-11T05:13:46.467Z,7.80
2024-04-11T05:16:33.404Z,8.00
2024-04-11T05:19:18.905Z,8.10
2024-04-11T05:22:01.593Z,8.20
2024-04-11T05:24:46.938Z,8.30
2024-04-11T05:27:29.521Z,8.50
2024-04-11T05:30:15.293Z,8.60
2024-04-11T05:33:01.420Z,8.70
2024-04-11T05:35:46.997Z,8.90
2024-04-11T05:41:15.746Z,9.10
2024-04-11T05:44:00.987Z,9.30
2024-04-11T05:46:43.632Z,9.40
2024-04-11T05:49:31.748Z,9.60
2024-04-11T05:54:59.839Z,9.90
2024-04-11T05:57:43.440Z,10.00
2024-04-11T06:00:30.796Z,10.10
2024-04-11T06:03:18.092Z,10.20
2024-04-11T06:06:07.250Z,10.40
2024-04-11T06:08:57.017Z,10.60
2024-04-11T06:11:41.767Z,10.70
2024-04-11T06:14:27.163Z,10.80
2024-04-11T06:17:09.655Z,11.00
2024-04-11T06:19:54.836Z,11.10
2024-04-11T06:22:41.098Z,11.20
2024-04-11T06:25:26.580Z,11.30
2024-04-11T06:28:12.486Z,11.30
2024-04-11T06:33:42.872Z,11.30
2024-04-11T06:36:28.517Z,11.40
2024-04-11T06:39:15.826Z,11.50
2024-04-11T06:42:03.949Z,11.60
2024-04-11T06:44:46.978Z,11.70
2024-04-11T06:47:39.008Z,11.70
2024-04-11T06:50:25.851Z,11.80
2024-04-11T06:53:12.720Z,11.80
2024-04-11T06:55:57.907Z,11.80
2024-04-11T06:58:43.673Z,12.00
2024-04-11T07:01:29.179Z,12.10
2024-04-11T07:04:15.489Z,12.20
2024-04-11T07:07:01.686Z,12.30
2024-04-11T07:09:44.366Z,12.40
2024-04-11T07:12:37.761Z,12.50
2024-04-11T07:15:20.478Z,12.70
2024-04-11T07:18:05.772Z,12.80
2024-04-11T07:20:52.020Z,12.90
2024-04-11T07:23:38.497Z,12.90
2024-04-11T07:29:11.967Z,13.10
2024-04-11T07:31:54.510Z,13.10
2024-04-11T07:37:26.761Z,13.20
2024-04-11T07:40:29.245Z,13.30
2024-04-11T07:43:15.282Z,13.40
2024-04-11T07:46:02.023Z,13.40
2024-04-11T07:48:49.399Z,13.50
2024-04-11T07:54:25.693Z,13.60
2024-04-11T07:57:18.586Z,13.70
2024-04-11T08:00:04.558Z,13.90
2024-04-11T08:02:50.082Z,13.90
2024-04-11T08:05:35.295Z,13.80
2024-04-11T08:08:21.638Z,13.80
2024-04-11T08:11:08.493Z,13.80
2024-04-11T08:13:53.963Z,13.80
2024-04-11T08:16:39.375Z,13.80
2024-04-11T08:19:24.630Z,13.90
2024-04-11T08:22:10.304Z,13.80
2024-04-11T08:24:52.851Z,13.90
2024-04-11T08:27:38.865Z,13.90
2024-04-11T08:30:21.420Z,14.10
2024-04-11T08:33:11.404Z,14.20
2024-04-11T08:35:58.611Z,14.30
2024-04-11T08:41:27.982Z,14.40
2024-04-11T08:44:13.478Z,14.50
2024-04-11T08:49:41.687Z,14.60
2024-04-11T08:52:31.051Z,14.70
2024-04-11T08:55:18.419Z,14.90
2024-04-11T08:58:01.599Z,14.90
2024-04-11T09:00:50.153Z,14.80
2024-04-11T09:06:25.123Z,15.20
2024-04-11T09:09:17.380Z,15.20
2024-04-11T09:12:02.619Z,15.10
2024-04-11T09:14:45.234Z,15.10
2024-04-11T09:20:14.609Z,15.20
2024-04-11T09:23:01.346Z,15.20
2024-04-11T09:25:46.778Z,15.30
2024-04-11T09:28:32.538Z,15.50
2024-04-11T09:31:19.713Z,15.50
2024-04-11T09:34:05.930Z,15.50
2024-04-11T09:36:49.765Z,15.50
2024-04-11T09:39:56.578Z,15.40
2024-04-11T09:42:48.015Z,15.60
2024-04-11T09:45:33.982Z,15.60
2024-04-11T09:48:22.635Z,15.80
2024-04-11T09:51:11.114Z,15.90
2024-04-11T09:53:56.905Z,16.10
2024-04-11T09:56:39.743Z,16.00
2024-04-11T09:59:27.953Z,15.90
2024-04-11T10:02:14.537Z,16.00
2024-04-11T10:05:06.164Z,16.10
2024-04-11T10:07:59.801Z,16.10
2024-04-11T10:10:45.091Z,16.20
2024-04-11T10:13:27.648Z,16.20
2024-04-11T10:16:29.750Z,16.20
2024-04-11T10:19:23.546Z,16.30
2024-04-11T10:22:10.309Z,16.50
2024-04-11T10:25:07.432Z,16.30
2024-04-11T10:27:53.100Z,16.30
2024-04-11T10:30:36.268Z,16.20
2024-04-11T10:33:31.320Z,16.30
2024-04-11T10:36:14.779Z,16.30
2024-04-11T10:39:00.038Z,16.60
2024-04-11T10:41:47.395Z,16.60
2024-04-11T10:44:30.213Z,16.60
2024-04-11T10:47:18.644Z,16.60
2024-04-11T10:50:10.874Z,16.80
2024-04-11T10:52:58.705Z,17.10
2024-04-11T10:55:44.779Z,17.50
2024-04-11T10:58:33.501Z,17.50
2024-04-11T11:01:16.321Z,17.70
2024-04-11T11:04:08.184Z,18.00
2024-04-11T11:06:55.656Z,18.30
2024-04-11T11:09:44.527Z,18.20
2024-04-11T11:12:27.350Z,18.70
2024-04-11T11:15:15.215Z,18.80
2024-04-11T11:17:57.796Z,18.80
2024-04-11T11:20:46.301Z,19.00
2024-04-11T11:23:35.505Z,19.00
2024-04-11T11:26:23.902Z,19.10
2024-04-11T11:29:07.588Z,19.40
2024-04-11T11:32:02.745Z,19.70
2024-04-11T11:34:48.075Z,19.30
2024-04-11T11:37:33.667Z,19.40
2024-04-11T11:40:37.192Z,19.20
2024-04-11T11:43:23.680Z,19.30
2024-04-11T11:46:28.764Z,19.70
2024-04-11T11:49:14.653Z,19.70
2024-04-11T11:51:58.126Z,20.10
2024-04-11T11:57:41.065Z,20.60
2024-04-11T12:00:34.556Z,21.50
2024-04-11T12:03:28.087Z,20.50
2024-04-11T12:06:23.225Z,19.60
2024-04-11T12:09:14.485Z,19.10
2024-04-11T12:12:09.013Z,19.30
2024-04-11T12:15:02.798Z,19.10
2024-04-11T12:17:45.645Z,19.00
2024-04-11T12:20:32.400Z,19.30
2024-04-11T12:23:16.205Z,19.90
2024-04-11T12:26:01.988Z,20.40
2024-04-11T12:28:47.114Z,21.10
2024-04-11T12:31:37.382Z,21.00
2024-04-11T12:34:21.265Z,20.90
2024-04-11T12:37:12.999Z,21.00
2024-04-11T12:39:56.317Z,21.40
2024-04-11T12:42:41.560Z,21.40
2024-04-11T12:45:24.126Z,21.10
2024-04-11T12:48:15.604Z,21.10
2024-04-11T12:51:00.767Z,20.70
2024-04-11T12:53:46.160Z,20.30
2024-04-11T12:56:28.744Z,20.10
2024-04-11T13:02:20.703Z,19.40
2024-04-11T13:05:06.588Z,19.60
2024-04-11T13:07:51.808Z,20.00
2024-04-11T13:10:35.822Z,20.00
2024-04-11T13:13:24.612Z,19.40
2024-04-11T13:16:11.753Z,19.30
2024-04-11T13:21:52.154Z,19.10
2024-04-11T13:24:47.365Z,18.90
2024-04-11T13:27:39.249Z,18.50
2024-04-11T13:30:27.124Z,18.30
2024-04-11T13:33:16.372Z,18.20
2024-04-11T13:36:05.738Z,18.20
2024-04-11T13:38:51.517Z,18.30
2024-04-11T13:44:35.539Z,18.50
2024-04-11T13:47:23.630Z,18.60
2024-04-11T13:50:30.916Z,18.50
2024-04-11T13:53:22.367Z,18.50
2024-04-11T13:56:15.161Z,18.40
2024-04-11T13:59:09.392Z,18.20
2024-04-11T14:01:52.827Z,18.00
2024-04-11T14:07:31.439Z,17.80
2024-04-11T14:13:02.285Z,17.60
2024-04-11T14:15:47.611Z,17.70
2024-04-11T14:18:30.568Z,17.70
2024-04-11T14:21:23.292Z,17.70
2024-04-11T14:24:06.914Z,17.80
2024-04-11T14:27:00.215Z,17.80
2024-04-11T14:29:48.292Z,17.70
2024-04-11T14:32:54.517Z,17.50
2024-04-11T14:35:56.121Z,17.40
2024-04-11T14:38:49.854Z,17.40
2024-04-11T14:41:37.320Z,17.20
2024-04-11T14:44:22.965Z,17.20
2024-04-11T14:47:12.090Z,17.30
2024-04-11T14:52:44.332Z,17.20
2024-04-11T14:55:31.720Z,17.00
2024-04-11T14:58:14.526Z,16.90
2024-04-11T15:01:01.356Z,16.80
2024-04-11T15:03:47.189Z,16.70
2024-04-11T15:09:36.554Z,16.70
2024-04-11T15:12:25.020Z,16.60
2024-04-11T15:15:14.148Z,16.50
2024-04-11T15:18:04.369Z,16.40
2024-04-11T15:20:51.183Z,16.40
2024-04-11T15:23:37.770Z,16.50
2024-04-11T15:26:28.753Z,16.50
2024-04-11T15:32:06.942Z,16.60
2024-04-11T15:38:14.928Z,16.60
2024-04-11T15:41:09.132Z,16.40
2024-04-11T15:43:51.823Z,16.30
2024-04-11T15:49:27.899Z,16.20
2024-04-11T15:52:14.558Z,16.20
2024-04-11T15:55:10.200Z,16.10
2024-04-11T15:57:55.383Z,16.20
2024-04-11T16:00:40.788Z,16.10
2024-04-11T16:03:38.512Z,16.00
2024-04-11T16:06:27.159Z,16.00
2024-04-11T16:09:16.140Z,16.00
2024-04-11T16:12:02.587Z,16.10
2024-04-11T16:14:48.693Z,16.10
2024-04-11T16:17:38.578Z,16.30
2024-04-11T16:20:23.925Z,16.40
2024-04-11T16:23:07.760Z,16.60
2024-04-11T16:25:57.397Z,16.60
2024-04-11T16:28:42.866Z,16.50
2024-04-11T16:31:39.917Z,16.50
2024-04-11T16:34:24.848Z,16.60
2024-04-11T16:37:10.735Z,16.70
2024-04-11T16:39:53.656Z,16.70
2024-04-11T16:42:39.412Z,16.40
2024-04-11T16:45:27.112Z,16.10
2024-04-11T16:48:15.395Z,16.00
2024-04-11T16:50:58.138Z,16.00
2024-04-11T16:54:10.208Z,15.90
2024-04-11T16:56:54.546Z,15.80
2024-04-11T16:59:43.105Z,15.70
2024-04-11T17:02:30.030Z,15.70
2024-04-11T17:05:19.472Z,15.70
2024-04-11T17:08:10.146Z,15.60
2024-04-11T17:10:57.716Z,15.60
2024-04-11T17:13:46.170Z,15.50
2024-04-11T17:19:41.066Z,15.30
2024-04-11T17:22:43.716Z,15.20
2024-04-11T17:31:06.744Z,15.20
2024-04-11T17:36:43.326Z,15.10
2024-04-11T17:39:44.332Z,15.00
2024-04-11T17:42:29.243Z,15.00
2024-04-11T17:45:16.264Z,14.90
2024-04-11T17:48:11.725Z,14.80
2024-04-11T17:50:54.486Z,14.80
2024-04-11T17:53:42.456Z,14.80
2024-04-11T17:56:36.151Z,14.80
2024-04-11T18:02:05.754Z,14.60
2024-04-11T18:04:53.152Z,14.60
2024-04-11T18:10:25.962Z,14.50
2024-04-11T18:13:08.476Z,14.40
2024-04-11T18:16:01.890Z,14.40
2024-04-11T18:21:36.214Z,14.30
2024-04-11T18:24:20.472Z,14.30
2024-04-11T18:27:13.229Z,14.30
2024-04-11T18:29:57.132Z,14.20
2024-04-11T18:32:42.617Z,14.20
2024-04-11T18:35:27.979Z,14.10
2024-04-11T18:38:14.682Z,14.10
2024-04-11T18:41:12.652Z,14.10
2024-04-11T18:44:09.751Z,14.00
2024-04-11T18:46:57.903Z,14.00
2024-04-11T18:49:46.967Z,13.90
2024-04-11T18:55:20.625Z,13.80
2024-04-11T19:00:51.293Z,13.80
2024-04-11T19:03:33.974Z,13.70
2024-04-11T19:06:29.502Z,13.70
2024-04-11T19:09:12.904Z,13.70
2024-04-11T19:11:58.999Z,13.70
2024-04-11T19:14:48.882Z,13.70
2024-04-11T19:17:39.862Z,13.60
2024-04-11T19:20:23.623Z,13.60
2024-04-11T19:23:08.966Z,13.60
2024-04-11T19:25:51.496Z,13.60
2024-04-11T19:28:37.997Z,13.50
2024-04-11T19:31:22.084Z,13.50
2024-04-11T19:34:14.556Z,13.40
2024-04-11T19:37:03.088Z,13.40
2024-04-11T19:39:49.684Z,13.40
2024-04-11T19:42:32.340Z,13.40
2024-04-11T19:45:17.767Z,13.20
2024-04-11T19:50:57.191Z,13.20
2024-04-11T19:53:42.608Z,13.20
2024-04-11T19:56:35.394Z,13.20
2024-04-11T19:59:21.708Z,13.20
2024-04-11T20:02:13.464Z,13.10
2024-04-11T20:05:00.612Z,13.20
2024-04-11T20:07:58.276Z,13.10
2024-04-11T20:10:40.804Z,13.10
2024-04-11T20:13:38.139Z,13.00
2024-04-11T20:16:24.349Z,13.00
2024-04-11T20:19:11.779Z,13.10
2024-04-11T20:22:06.691Z,13.00
2024-04-11T20:24:54.843Z,13.10
2024-04-11T20:27:43.479Z,13.10
2024-04-11T20:30:26.587Z,13.10
2024-04-11T20:33:14.414Z,13.00
2024-04-11T20:35:57.052Z,13.00
2024-04-11T20:38:45.328Z,13.00
2024-04-11T20:41:34.009Z,13.00
2024-04-11T20:44:41.830Z,12.90
2024-04-11T20:47:49.767Z,12.90
2024-04-11T20:50:51.007Z,12.90
2024-04-11T20:53:51.683Z,12.90
2024-04-11T20:56:55.894Z,12.90
2024-04-11T20:59:57.189Z,12.90
2024-04-11T21:06:02.306Z,12.80
2024-04-11T21:09:07.269Z,12.80
2024-04-11T21:12:10.848Z,12.80
2024-04-11T21:15:12.043Z,12.70
2024-04-11T21:21:14.823Z,12.70
2024-04-11T21:27:20.517Z,12.60
2024-04-11T21:30:21.597Z,12.70
2024-04-11T21:33:22.460Z,12.70
2024-04-11T21:36:10.727Z,12.60
2024-04-11T21:38:56.949Z,12.60
2024-04-11T21:41:46.990Z,12.70
2024-04-11T21:44:35.294Z,12.70
2024-04-11T21:47:21.168Z,12.60
2024-04-11T21:50:03.805Z,12.70
2024-04-11T21:52:52.448Z,12.70
2024-04-11T21:58:20.997Z,12.70
2024-04-11T22:01:08.115Z,12.70
2024-04-11T22:03:54.550Z,12.70
2024-04-11T22:06:40.315Z,12.70
2024-04-11T22:09:23.237Z,12.70
2024-04-11T22:12:08.762Z,12.70
2024-04-11T22:14:59.133Z,12.70
2024-04-11T22:17:54.020Z,12.70
2024-04-11T22:20:37.197Z,12.70
2024-04-11T22:23:22.344Z,12.70
2024-04-11T22:26:07.614Z,12.70
2024-04-11T22:28:55.392Z,12.70
2024-04-11T22:34:31.066Z,12.70
2024-04-11T22:37:24.197Z,12.70
2024-04-11T22:40:15.793Z,12.70
2024-04-11T22:42:59.898Z,12.70
2024-04-11T22:45:46.113Z,12.70
2024-04-11T22:48:31.465Z,12.80
2024-04-11T22:51:24.979Z,12.70
2024-04-11T22:54:18.991Z,12.70
2024-04-11T22:57:01.815Z,12.70
2024-04-11T22:59:47.859Z,12.80
2024-04-11T23:02:33.448Z,12.80
2024-04-11T23:05:18.897Z,12.70
2024-04-11T23:08:07.108Z,12.70
2024-04-11T23:10:53.707Z,12.70
2024-04-11T23:13:36.574Z,12.70
2024-04-11T23:19:20.929Z,12.60
2024-04-11T23:24:59.407Z,12.60
2024-04-11T23:27:46.593Z,12.60
2024-04-11T23:30:29.764Z,12.50
2024-04-11T23:33:22.365Z,12.50
2024-04-11T23:36:07.932Z,12.50
2024-04-11T23:38:54.484Z,12.50
2024-04-11T23:41:50.985Z,12.50
2024-04-11T23:44:33.751Z,12.40
2024-04-11T23:47:19.058Z,12.50
2024-04-11T23:50:10.307Z,12.50
2024-04-11T23:52:57.715Z,12.60
2024-04-11T23:55:40.239Z,12.60
2024-04-11T23:58:31.591Z,12.60
